createdAt,value
2019-01-25T00:02:42.296Z,57.00
2019-01-25T00:05:46.145Z,54.07
2019-01-25T00:08:50.073Z,52.67
2019-01-25T00:11:53.946Z,45.60
2019-01-25T00:14:57.787Z,51.67
2019-01-25T00:18:01.728Z,58.90
2019-01-25T00:21:05.836Z,51.70
2019-01-25T00:36:52.202Z,59.10
2019-01-25T00:39:56.058Z,56.73
2019-01-25T00:42:59.960Z,55.17
2019-01-25T00:46:03.884Z,53.33
2019-01-25T00:49:07.730Z,55.77
2019-01-25T00:52:11.735Z,54.67
2019-01-25T00:55:15.730Z,58.77
2019-01-25T00:58:19.592Z,56.80
2019-01-25T01:01:23.593Z,63.43
2019-01-25T01:04:27.586Z,62.83
2019-01-25T01:07:31.521Z,58.70
2019-01-25T01:10:35.475Z,65.80
2019-01-25T01:13:39.445Z,58.60
2019-01-25T01:16:43.374Z,60.70
2019-01-25T01:19:47.216Z,64.23
2019-01-25T01:22:51.397Z,61.13
2019-01-25T01:25:55.327Z,61.73
2019-01-25T01:28:59.170Z,64.03
2019-01-25T01:32:03.154Z,61.87
2019-01-25T01:35:07.235Z,65.83
2019-01-25T01:38:11.180Z,64.40
2019-01-25T01:41:15.062Z,58.90
2019-01-25T01:44:18.966Z,61.17
2019-01-25T01:47:22.948Z,60.33
2019-01-25T01:50:26.920Z,68.20
2019-01-25T01:53:30.769Z,66.77
2019-01-25T01:56:34.653Z,64.93
2019-01-25T01:59:38.499Z,58.00
2019-01-25T02:02:42.519Z,61.63
2019-01-25T02:05:46.435Z,62.67
2019-01-25T02:08:50.278Z,60.60
2019-01-25T02:11:54.109Z,54.53
2019-01-25T02:14:58.034Z,62.43
2019-01-25T02:18:01.884Z,57.67
2019-01-25T02:21:06.871Z,54.83
2019-01-25T02:24:10.718Z,59.43
2019-01-25T02:27:14.572Z,59.80
2019-01-25T02:30:20.706Z,65.93
2019-01-25T02:33:24.641Z,58.70
2019-01-25T02:36:28.478Z,64.40
2019-01-25T02:39:32.336Z,57.17
2019-01-25T02:42:36.250Z,63.27
2019-01-25T02:45:40.094Z,56.20
2019-01-25T02:48:43.931Z,51.60
2019-01-25T02:51:47.766Z,57.87
2019-01-25T02:54:51.682Z,57.87
2019-01-25T02:57:55.538Z,59.40
2019-01-25T03:00:59.421Z,50.47
2019-01-25T03:04:03.351Z,51.43
2019-01-25T03:07:07.257Z,50.37
2019-01-25T03:10:12.460Z,49.23
2019-01-25T03:13:16.298Z,49.50
2019-01-25T03:16:20.236Z,53.23
2019-01-25T03:19:24.149Z,45.57
2019-01-25T03:22:28.079Z,44.53
2019-01-25T03:25:31.997Z,48.60
2019-01-25T03:28:36.001Z,47.80
2019-01-25T03:31:39.886Z,51.27
2019-01-25T03:34:43.737Z,46.30
2019-01-25T03:37:47.743Z,46.97
2019-01-25T03:40:55.137Z,47.80
2019-01-25T03:43:57.270Z,45.67
2019-01-25T03:47:01.090Z,44.33
2019-01-25T03:50:07.434Z,45.83
2019-01-25T03:53:11.375Z,47.30
2019-01-25T03:56:15.178Z,51.70
2019-01-25T03:59:18.974Z,51.60
2019-01-25T04:02:22.895Z,50.23
2019-01-25T04:05:26.853Z,49.77
2019-01-25T04:08:30.812Z,53.03
2019-01-25T04:11:34.682Z,47.10
2019-01-25T04:14:38.609Z,51.47
2019-01-25T04:17:42.487Z,51.97
2019-01-25T04:20:46.393Z,49.67
2019-01-25T04:23:50.257Z,54.97
2019-01-25T04:26:54.056Z,47.23
2019-01-25T04:29:57.919Z,48.83
2019-01-25T04:33:01.774Z,44.93
2019-01-25T04:36:05.875Z,54.80
2019-01-25T04:39:10.264Z,50.70
2019-01-25T04:42:14.139Z,55.80
2019-01-25T04:45:19.242Z,50.20
2019-01-25T04:48:23.117Z,53.70
2019-01-25T04:51:27.020Z,52.73
2019-01-25T04:54:30.968Z,55.93
2019-01-25T04:57:34.818Z,62.23
2019-01-25T05:00:38.712Z,59.37
2019-01-25T05:03:42.564Z,58.57
2019-01-25T05:06:46.400Z,57.53
2019-01-25T05:09:50.197Z,54.43
2019-01-25T05:12:54.505Z,61.20
2019-01-25T05:15:58.359Z,56.47
2019-01-25T05:19:02.221Z,58.97
2019-01-25T05:22:06.202Z,58.03
2019-01-25T05:25:10.171Z,60.70
2019-01-25T05:28:18.693Z,62.83
2019-01-25T05:31:26.310Z,61.70
2019-01-25T05:34:30.129Z,58.67
2019-01-25T05:37:33.961Z,58.50
2019-01-25T05:40:37.839Z,63.47
2019-01-25T05:43:42.954Z,54.40
2019-01-25T05:46:46.761Z,55.00
2019-01-25T05:49:50.600Z,56.67
2019-01-25T05:52:54.601Z,56.97
2019-01-25T05:55:58.552Z,56.93
2019-01-25T05:59:02.407Z,52.47
2019-01-25T06:02:06.398Z,54.57
2019-01-25T06:05:10.437Z,59.43
2019-01-25T06:08:32.227Z,57.93
2019-01-25T06:11:37.480Z,55.27
2019-01-25T06:14:41.333Z,64.43
2019-01-25T06:17:45.183Z,58.73
2019-01-25T06:20:52.478Z,55.90
2019-01-25T06:23:56.307Z,57.77
2019-01-25T06:27:00.315Z,60.37
2019-01-25T06:30:07.080Z,56.60
2019-01-25T06:33:10.966Z,63.33
2019-01-25T06:36:14.866Z,56.40
2019-01-25T06:39:18.785Z,59.67
2019-01-25T06:42:22.709Z,59.23
2019-01-25T06:45:26.531Z,61.83
2019-01-25T06:48:30.450Z,66.60
2019-01-25T06:51:34.420Z,59.47
2019-01-25T06:54:38.264Z,61.23
2019-01-25T06:57:54.725Z,63.70
2019-01-25T07:01:06.624Z,61.27
2019-01-25T07:04:10.600Z,59.70
2019-01-25T07:07:39.567Z,61.63
2019-01-25T07:10:43.479Z,58.53
2019-01-25T07:13:47.302Z,59.37
2019-01-25T07:16:51.159Z,59.00
2019-01-25T07:19:54.990Z,64.90
2019-01-25T07:22:58.852Z,63.10
2019-01-25T07:26:02.842Z,65.37
2019-01-25T07:29:06.764Z,58.70
2019-01-25T07:32:10.779Z,58.60
2019-01-25T07:35:14.717Z,64.23
2019-01-25T07:38:18.765Z,63.43
2019-01-25T07:41:22.602Z,68.63
2019-01-25T07:44:26.658Z,65.97
2019-01-25T07:47:30.578Z,60.70
2019-01-25T07:50:34.465Z,61.43
2019-01-25T07:53:38.626Z,70.03
2019-01-25T07:56:42.448Z,67.83
2019-01-25T07:59:46.360Z,67.33
2019-01-25T08:02:50.285Z,65.20
2019-01-25T08:05:54.172Z,63.83
2019-01-25T08:08:58.012Z,66.20
2019-01-25T08:12:07.332Z,72.87
2019-01-25T08:15:10.660Z,70.83
2019-01-25T08:18:14.597Z,66.20
2019-01-25T08:21:18.497Z,69.27
2019-01-25T08:24:22.360Z,69.23
2019-01-25T08:27:26.169Z,65.27
2019-01-25T08:30:30.158Z,64.83
2019-01-25T08:33:34.021Z,67.53
2019-01-25T08:36:37.940Z,70.53
2019-01-25T08:39:41.864Z,63.90
2019-01-25T08:42:45.832Z,64.03
2019-01-25T08:45:49.871Z,66.47
2019-01-25T08:48:54.091Z,68.50
2019-01-25T08:51:57.965Z,68.80
2019-01-25T08:55:01.798Z,69.03
2019-01-25T08:58:05.782Z,68.57
2019-01-25T09:01:09.604Z,68.67
2019-01-25T09:04:13.436Z,66.40
2019-01-25T09:07:17.334Z,70.07
2019-01-25T09:10:21.309Z,64.37
2019-01-25T09:13:25.159Z,73.50
2019-01-25T09:16:29.039Z,67.97
2019-01-25T09:19:32.929Z,68.87
2019-01-25T09:22:36.815Z,68.07
2019-01-25T09:25:40.654Z,78.10
2019-01-25T09:28:44.527Z,66.57
2019-01-25T09:31:48.405Z,75.07
2019-01-25T09:34:52.203Z,66.93
2019-01-25T09:37:56.100Z,64.77
2019-01-25T09:40:59.900Z,73.40
2019-01-25T09:44:03.896Z,64.83
2019-01-25T09:47:07.878Z,64.17
2019-01-25T09:50:14.019Z,69.70
2019-01-25T09:53:17.822Z,66.87
2019-01-25T09:56:21.620Z,59.57
2019-01-25T09:59:25.422Z,65.60
2019-01-25T10:02:29.245Z,60.73
2019-01-25T10:05:33.066Z,63.73
2019-01-25T10:08:36.873Z,63.57
2019-01-25T10:11:40.677Z,63.50
2019-01-25T10:14:44.539Z,58.53
2019-01-25T10:17:48.464Z,64.60
2019-01-25T10:20:52.281Z,63.23
2019-01-25T10:23:56.091Z,64.37
2019-01-25T10:26:59.955Z,63.23
2019-01-25T10:30:04.645Z,58.57
2019-01-25T10:33:08.466Z,58.07
2019-01-25T10:36:12.426Z,59.40
2019-01-25T10:39:16.242Z,62.73
2019-01-25T10:42:20.045Z,58.73
2019-01-25T10:45:26.797Z,64.70
2019-01-25T10:48:30.595Z,62.07
2019-01-25T10:51:34.567Z,56.60
2019-01-25T10:54:38.375Z,53.10
2019-01-25T10:57:42.334Z,52.60
2019-01-25T11:00:46.212Z,61.33
2019-01-25T11:03:50.048Z,56.93
2019-01-25T11:06:53.849Z,53.53
2019-01-25T11:09:57.689Z,51.23
2019-01-25T11:13:02.064Z,41.33
2019-01-25T11:16:06.348Z,55.37
2019-01-25T11:19:10.277Z,53.57
2019-01-25T11:22:14.085Z,58.27
2019-01-25T11:25:28.874Z,48.23
2019-01-25T11:28:32.667Z,54.33
2019-01-25T11:31:36.471Z,50.43
2019-01-25T11:34:40.440Z,42.87
2019-01-25T11:37:44.379Z,47.73
2019-01-25T11:40:48.359Z,43.03
2019-01-25T11:43:52.189Z,40.77
2019-01-25T11:46:56.134Z,46.23
2019-01-25T11:50:00.010Z,52.27
2019-01-25T11:53:04.017Z,45.33
2019-01-25T11:56:07.989Z,47.80
2019-01-25T11:59:11.921Z,45.80
2019-01-25T12:02:20.880Z,45.63
2019-01-25T12:05:22.673Z,45.77
2019-01-25T12:08:26.579Z,44.10
2019-01-25T12:11:30.470Z,46.37
2019-01-25T12:14:34.276Z,39.80
2019-01-25T12:17:38.099Z,43.97
2019-01-25T12:20:41.918Z,36.57
2019-01-25T12:23:45.790Z,42.77
2019-01-25T12:26:49.594Z,44.57
2019-01-25T12:29:53.417Z,44.17
2019-01-25T12:32:57.380Z,27.87
2019-01-25T12:36:01.196Z,40.03
2019-01-25T12:39:08.343Z,29.30
2019-01-25T12:42:12.225Z,39.90
2019-01-25T12:45:18.832Z,43.07
2019-01-25T12:48:22.658Z,39.73
2019-01-25T12:51:36.004Z,46.33
2019-01-25T12:54:39.837Z,44.17
2019-01-25T12:57:43.636Z,40.10
2019-01-25T13:00:47.567Z,44.43
2019-01-25T13:03:51.463Z,39.40
2019-01-25T13:06:55.391Z,41.80
2019-01-25T13:09:59.196Z,37.57
2019-01-25T13:13:03.179Z,45.23
2019-01-25T13:16:07.118Z,44.33
2019-01-25T13:19:11.101Z,41.60
2019-01-25T13:22:14.913Z,45.20
2019-01-25T13:25:18.819Z,45.60
2019-01-25T13:28:22.813Z,41.23
2019-01-25T13:31:26.616Z,44.10
2019-01-25T13:34:30.471Z,42.33
2019-01-25T13:37:34.335Z,43.07
2019-01-25T13:40:38.214Z,43.73
2019-01-25T13:43:42.102Z,40.70
2019-01-25T13:46:45.897Z,42.13
2019-01-25T13:49:49.731Z,44.10
2019-01-25T13:52:53.669Z,39.43
2019-01-25T13:55:57.574Z,39.40
2019-01-25T13:59:01.386Z,44.07
2019-01-25T14:02:05.359Z,43.40
2019-01-25T14:05:09.475Z,43.77
2019-01-25T14:08:13.286Z,42.00
2019-01-25T14:11:17.188Z,39.73
2019-01-25T14:14:21.032Z,38.27
2019-01-25T14:17:24.845Z,44.33
2019-01-25T14:20:30.514Z,42.73
2019-01-25T14:23:34.327Z,42.30
2019-01-25T14:26:38.291Z,39.37
2019-01-25T14:29:42.126Z,41.17
2019-01-25T14:32:45.933Z,46.70
2019-01-25T14:35:49.770Z,41.30
2019-01-25T14:38:53.593Z,40.13
2019-01-25T14:41:57.399Z,41.90
2019-01-25T14:45:01.218Z,40.20
2019-01-25T14:48:05.693Z,46.73
2019-01-25T14:51:09.568Z,38.90
2019-01-25T14:54:13.377Z,40.57
2019-01-25T14:57:17.204Z,42.53
2019-01-25T15:00:21.078Z,45.83
2019-01-25T15:03:24.908Z,52.23
2019-01-25T15:06:28.788Z,36.53
2019-01-25T15:09:32.612Z,45.00
2019-01-25T15:12:36.586Z,48.97
2019-01-25T15:15:40.466Z,45.13
2019-01-25T15:18:44.279Z,45.57
2019-01-25T15:21:48.086Z,46.30
2019-01-25T15:24:52.050Z,50.23
2019-01-25T15:27:55.988Z,46.73
2019-01-25T15:30:59.871Z,46.07
2019-01-25T15:34:03.796Z,46.43
2019-01-25T15:37:07.704Z,48.23
2019-01-25T15:40:12.399Z,44.83
2019-01-25T15:43:16.203Z,53.63
2019-01-25T15:46:20.270Z,50.20
2019-01-25T15:49:24.091Z,49.83
2019-01-25T15:52:28.025Z,49.63
2019-01-25T15:55:32.191Z,49.93
2019-01-25T15:58:36.098Z,48.70
2019-01-25T16:01:39.926Z,48.80
2019-01-25T16:04:43.731Z,52.53
2019-01-25T16:07:47.881Z,54.87
2019-01-25T16:10:51.798Z,49.90
2019-01-25T16:13:55.613Z,52.70
2019-01-25T16:16:59.517Z,51.97
2019-01-25T16:20:03.504Z,62.40
2019-01-25T16:23:07.465Z,81.63
2019-01-25T16:26:11.273Z,64.33
2019-01-25T16:29:15.102Z,58.03
2019-01-25T16:32:19.021Z,57.23
2019-01-25T16:35:22.916Z,59.80
2019-01-25T16:38:27.656Z,58.07
2019-01-25T16:41:31.498Z,54.17
2019-01-25T16:44:36.391Z,55.93
2019-01-25T16:47:40.205Z,61.90
2019-01-25T16:50:44.096Z,55.47
2019-01-25T16:53:47.977Z,65.03
2019-01-25T16:56:51.789Z,60.53
2019-01-25T16:59:55.668Z,68.40
2019-01-25T17:02:59.490Z,64.03
2019-01-25T17:06:03.436Z,68.80
2019-01-25T17:09:08.358Z,78.50
2019-01-25T17:12:12.181Z,81.83
2019-01-25T17:15:16.378Z,82.93
2019-01-25T17:18:20.332Z,80.30
2019-01-25T17:21:24.234Z,83.87
2019-01-25T17:24:28.087Z,77.60
2019-01-25T17:27:31.910Z,88.57
2019-01-25T17:30:36.488Z,91.20
2019-01-25T17:33:40.405Z,88.87
2019-01-25T17:36:44.301Z,85.63
2019-01-25T17:39:48.188Z,83.13
2019-01-25T17:42:52.172Z,88.90
2019-01-25T17:45:56.047Z,82.40
2019-01-25T17:48:59.941Z,88.73
2019-01-25T17:52:03.850Z,93.03
2019-01-25T17:55:08.769Z,96.87
2019-01-25T17:58:12.678Z,84.47
2019-01-25T18:01:16.501Z,98.43
2019-01-25T18:04:20.319Z,94.90
2019-01-25T18:07:24.208Z,80.67
2019-01-25T18:10:28.172Z,85.10
2019-01-25T18:13:32.048Z,91.70
2019-01-25T18:16:36.011Z,91.07
2019-01-25T18:19:39.828Z,89.00
2019-01-25T18:22:43.781Z,89.47
2019-01-25T18:26:00.822Z,89.27
2019-01-25T18:29:14.237Z,85.40
2019-01-25T18:32:18.136Z,100.67
2019-01-25T18:35:21.964Z,92.93
2019-01-25T18:38:25.793Z,93.77
2019-01-25T18:41:29.627Z,90.73
2019-01-25T18:44:33.460Z,93.63
2019-01-25T18:47:37.699Z,87.53
2019-01-25T18:50:41.596Z,85.67
2019-01-25T18:53:45.982Z,89.03
2019-01-25T18:56:51.181Z,82.70
2019-01-25T18:59:54.966Z,84.17
2019-01-25T19:02:58.832Z,89.93
2019-01-25T19:06:02.836Z,78.20
2019-01-25T19:09:09.025Z,78.67
2019-01-25T19:12:12.858Z,83.60
2019-01-25T19:15:19.444Z,89.17
2019-01-25T19:18:23.329Z,85.80
2019-01-25T19:21:27.162Z,85.27
2019-01-25T19:24:30.964Z,88.67
2019-01-25T19:27:34.845Z,81.40
2019-01-25T19:30:41.215Z,83.07
2019-01-25T19:33:45.034Z,81.13
2019-01-25T19:36:48.904Z,95.63
2019-01-25T19:39:52.798Z,76.73
2019-01-25T19:42:56.765Z,80.47
2019-01-25T19:46:00.567Z,105.63
2019-01-25T19:49:04.540Z,122.47
2019-01-25T19:52:08.565Z,130.07
2019-01-25T19:55:15.373Z,180.83
2019-01-25T19:58:20.751Z,136.50
2019-01-25T20:01:24.746Z,85.97
2019-01-25T20:04:28.657Z,85.37
2019-01-25T20:07:32.475Z,86.30
2019-01-25T20:10:36.432Z,78.37
2019-01-25T20:13:40.344Z,85.27
2019-01-25T20:16:44.236Z,78.40
2019-01-25T20:19:48.036Z,81.43
2019-01-25T20:22:51.885Z,87.27
2019-01-25T20:25:55.697Z,86.23
2019-01-25T20:28:59.522Z,90.17
2019-01-25T20:32:03.560Z,88.90
2019-01-25T20:35:09.610Z,82.87
2019-01-25T20:38:13.553Z,87.37
2019-01-25T20:41:17.474Z,89.17
2019-01-25T20:44:21.353Z,83.80
2019-01-25T20:47:25.319Z,80.50
2019-01-25T20:50:30.369Z,83.23
2019-01-25T20:53:34.253Z,81.43
2019-01-25T20:56:38.064Z,79.97
2019-01-25T20:59:41.888Z,86.17
2019-01-25T21:02:45.783Z,82.97
2019-01-25T21:05:49.666Z,74.17
2019-01-25T21:08:53.598Z,81.73
2019-01-25T21:11:57.475Z,80.27
2019-01-25T21:15:01.285Z,81.43
2019-01-25T21:18:06.322Z,82.67
2019-01-25T21:21:10.208Z,75.60
2019-01-25T21:24:14.124Z,80.80
2019-01-25T21:27:17.949Z,80.80
2019-01-25T21:30:24.394Z,80.73
2019-01-25T21:33:28.376Z,87.53
2019-01-25T21:36:32.325Z,83.43
2019-01-25T21:39:36.149Z,83.80
2019-01-25T21:42:39.946Z,78.67
2019-01-25T21:45:43.879Z,83.07
2019-01-25T21:48:47.706Z,83.70
2019-01-25T21:51:51.600Z,79.67
2019-01-25T21:54:55.439Z,78.13
2019-01-25T21:58:05.508Z,74.00
2019-01-25T22:01:05.056Z,74.70
2019-01-25T22:04:08.877Z,84.27
2019-01-25T22:07:12.711Z,73.53
2019-01-25T22:10:22.298Z,76.77
2019-01-25T22:13:26.096Z,79.50
2019-01-25T22:16:30.081Z,71.80
2019-01-25T22:19:33.993Z,68.93
2019-01-25T22:22:37.899Z,74.03
2019-01-25T22:25:41.940Z,72.40
2019-01-25T22:28:45.765Z,71.47
2019-01-25T22:31:49.721Z,72.60
2019-01-25T22:34:53.516Z,71.73
2019-01-25T22:37:57.487Z,72.87
2019-01-25T22:41:01.374Z,75.13
2019-01-25T22:44:05.262Z,68.03
2019-01-25T22:47:09.154Z,74.43
2019-01-25T22:50:16.415Z,69.80
2019-01-25T22:53:20.385Z,70.23
2019-01-25T22:56:24.240Z,72.60
2019-01-25T22:59:28.101Z,83.43
2019-01-25T23:02:31.991Z,75.13
2019-01-25T23:06:11.694Z,72.33
2019-01-25T23:09:30.588Z,75.80
2019-01-25T23:12:35.862Z,81.10
2019-01-25T23:15:39.875Z,76.23
2019-01-25T23:18:43.685Z,82.87
2019-01-25T23:21:47.594Z,77.60
2019-01-25T23:24:51.410Z,86.00
2019-01-25T23:27:55.233Z,86.50
2019-01-25T23:30:59.199Z,76.77
2019-01-25T23:34:03.103Z,78.67
2019-01-25T23:37:06.955Z,76.93
2019-01-25T23:40:13.238Z,78.67
2019-01-25T23:43:17.158Z,86.03
2019-01-25T23:46:20.958Z,81.50
2019-01-25T23:49:24.793Z,86.37
2019-01-25T23:52:28.619Z,93.63
2019-01-25T23:55:32.588Z,84.43
2019-01-25T23:58:36.481Z,79.57
